sensor_id;sensor_type;location;lat;lon;timestamp;pressure;altitude;pressure_sealevel;temperature;humidity
64368;BME280;50692;53.314;-6.300;2023-02-26T00:00:47;102324.78;;;8.00;54.04
64368;BME280;50692;53.314;-6.300;2023-02-26T00:03:33;102316.06;;;7.97;53.71
64368;BME280;50692;53.314;-6.300;2023-02-26T00:06:19;102325.69;;;7.98;52.83
64368;BME280;50692;53.314;-6.300;2023-02-26T00:09:05;102336.25;;;7.96;53.08
64368;BME280;50692;53.314;-6.300;2023-02-26T00:11:51;102332.69;;;7.99;53.28
64368;BME280;50692;53.314;-6.300;2023-02-26T00:14:37;102336.25;;;7.96;54.31
64368;BME280;50692;53.314;-6.300;2023-02-26T00:17:44;102338.94;;;7.93;54.96
64368;BME280;50692;53.314;-6.300;2023-02-26T00:20:35;102340.56;;;7.99;54.95
64368;BME280;50692;53.314;-6.300;2023-02-26T00:23:21;102332.94;;;7.85;55.08
64368;BME280;50692;53.314;-6.300;2023-02-26T00:26:09;102345.97;;;7.91;54.93
64368;BME280;50692;53.314;-6.300;2023-02-26T00:28:55;102338.94;;;7.91;54.89
64368;BME280;50692;53.314;-6.300;2023-02-26T00:31:41;102338.97;;;7.90;55.13
64368;BME280;50692;53.314;-6.300;2023-02-26T00:34:27;102330.13;;;7.94;55.05
64368;BME280;50692;53.314;-6.300;2023-02-26T00:37:31;102335.44;;;7.91;55.05
64368;BME280;50692;53.314;-6.300;2023-02-26T00:40:44;102344.31;;;7.85;54.43
64368;BME280;50692;53.314;-6.300;2023-02-26T00:43:30;102340.88;;;7.82;54.08
64368;BME280;50692;53.314;-6.300;2023-02-26T00:46:37;102342.78;;;7.71;55.02
64368;BME280;50692;53.314;-6.300;2023-02-26T00:55:37;102341.84;;;7.75;54.90
64368;BME280;50692;53.314;-6.300;2023-02-26T00:58:23;102348.84;;;7.77;55.45
64368;BME280;50692;53.314;-6.300;2023-02-26T01:01:09;102348.81;;;7.79;56.03
64368;BME280;50692;53.314;-6.300;2023-02-26T01:03:55;102343.53;;;7.79;55.95
64368;BME280;50692;53.314;-6.300;2023-02-26T01:06:44;102341.94;;;7.70;55.58
64368;BME280;50692;53.314;-6.300;2023-02-26T01:09:33;102337.50;;;7.72;55.47
64368;BME280;50692;53.314;-6.300;2023-02-26T01:12:19;102349.78;;;7.72;56.36
64368;BME280;50692;53.314;-6.300;2023-02-26T01:15:06;102352.38;;;7.75;57.20
64368;BME280;50692;53.314;-6.300;2023-02-26T01:17:54;102343.66;;;7.69;58.45
64368;BME280;50692;53.314;-6.300;2023-02-26T01:20:46;102351.47;;;7.76;58.68
64368;BME280;50692;53.314;-6.300;2023-02-26T01:23:37;102369.94;;;7.73;59.33
64368;BME280;50692;53.314;-6.300;2023-02-26T01:26:28;102355.09;;;7.70;59.78
64368;BME280;50692;53.314;-6.300;2023-02-26T01:29:14;102355.91;;;7.74;59.97
64368;BME280;50692;53.314;-6.300;2023-02-26T01:32:17;102349.66;;;7.79;59.96
64368;BME280;50692;53.314;-6.300;2023-02-26T01:35:10;102354.06;;;7.79;59.82
64368;BME280;50692;53.314;-6.300;2023-02-26T01:44:25;102354.06;;;7.79;59.33
64368;BME280;50692;53.314;-6.300;2023-02-26T01:50:23;102362.97;;;7.72;59.01
64368;BME280;50692;53.314;-6.300;2023-02-26T01:53:21;102359.41;;;7.73;58.49
64368;BME280;50692;53.314;-6.300;2023-02-26T01:56:14;102363.03;;;7.65;58.48
64368;BME280;50692;53.314;-6.300;2023-02-26T01:59:03;102353.50;;;7.58;58.51
64368;BME280;50692;53.314;-6.300;2023-02-26T02:01:52;102358.03;;;7.49;58.49
64368;BME280;50692;53.314;-6.300;2023-02-26T02:04:39;102369.47;;;7.44;58.34
64368;BME280;50692;53.314;-6.300;2023-02-26T02:07:25;102359.03;;;7.38;58.56
64368;BME280;50692;53.314;-6.300;2023-02-26T02:10:11;102368.69;;;7.36;58.52
64368;BME280;50692;53.314;-6.300;2023-02-26T02:13:11;102372.31;;;7.29;58.38
64368;BME280;50692;53.314;-6.300;2023-02-26T02:28:34;102377.03;;;7.01;55.95
64368;BME280;50692;53.314;-6.300;2023-02-26T02:34:40;102387.66;;;6.92;56.31
64368;BME280;50692;53.314;-6.300;2023-02-26T02:37:35;102383.34;;;6.86;56.58
64368;BME280;50692;53.314;-6.300;2023-02-26T02:40:34;102385.94;;;6.89;57.10
64368;BME280;50692;53.314;-6.300;2023-02-26T02:43:26;102398.28;;;6.81;57.27
64368;BME280;50692;53.314;-6.300;2023-02-26T02:46:18;102392.94;;;6.87;57.38
64368;BME280;50692;53.314;-6.300;2023-02-26T02:49:09;102396.47;;;6.86;57.34
64368;BME280;50692;53.314;-6.300;2023-02-26T02:52:01;102399.09;;;6.88;57.41
64368;BME280;50692;53.314;-6.300;2023-02-26T02:54:55;102407.88;;;6.85;57.60
64368;BME280;50692;53.314;-6.300;2023-02-26T02:57:49;102414.00;;;6.86;57.15
64368;BME280;50692;53.314;-6.300;2023-02-26T03:00:41;102407.84;;;6.87;57.14
64368;BME280;50692;53.314;-6.300;2023-02-26T03:04:14;102393.84;;;6.88;56.84
64368;BME280;50692;53.314;-6.300;2023-02-26T03:06:35;102406.91;;;6.95;55.90
64368;BME280;50692;53.314;-6.300;2023-02-26T03:09:21;102405.91;;;7.04;55.82
64368;BME280;50692;53.314;-6.300;2023-02-26T03:12:07;102390.13;;;7.07;56.02
64368;BME280;50692;53.314;-6.300;2023-02-26T03:14:53;102409.25;;;7.18;56.69
64368;BME280;50692;53.314;-6.300;2023-02-26T03:20:40;102410.03;;;7.27;56.51
64368;BME280;50692;53.314;-6.300;2023-02-26T03:23:34;102404.75;;;7.30;56.42
64368;BME280;50692;53.314;-6.300;2023-02-26T03:26:32;102399.47;;;7.31;56.28
64368;BME280;50692;53.314;-6.300;2023-02-26T03:29:27;102405.56;;;7.35;56.03
64368;BME280;50692;53.314;-6.300;2023-02-26T03:32:28;102407.31;;;7.36;55.76
64368;BME280;50692;53.314;-6.300;2023-02-26T03:35:31;102404.63;;;7.37;55.39
64368;BME280;50692;53.314;-6.300;2023-02-26T03:38:48;102409.09;;;7.32;54.45
64368;BME280;50692;53.314;-6.300;2023-02-26T03:41:52;102411.78;;;7.28;54.05
64368;BME280;50692;53.314;-6.300;2023-02-26T03:45:13;102414.47;;;7.25;54.66
64368;BME280;50692;53.314;-6.300;2023-02-26T03:47:59;102412.00;;;7.09;54.87
64368;BME280;50692;53.314;-6.300;2023-02-26T03:50:49;102423.25;;;7.22;54.68
64368;BME280;50692;53.314;-6.300;2023-02-26T03:53:44;102417.19;;;7.17;54.93
64368;BME280;50692;53.314;-6.300;2023-02-26T03:56:46;102421.44;;;7.26;54.78
64368;BME280;50692;53.314;-6.300;2023-02-26T03:59:33;102413.59;;;7.24;54.99
64368;BME280;50692;53.314;-6.300;2023-02-26T04:02:33;102427.56;;;7.28;55.58
64368;BME280;50692;53.314;-6.300;2023-02-26T04:05:27;102435.44;;;7.31;55.67
64368;BME280;50692;53.314;-6.300;2023-02-26T04:08:13;102439.75;;;7.38;55.62
64368;BME280;50692;53.314;-6.300;2023-02-26T04:13:50;102433.50;;;7.45;55.78
64368;BME280;50692;53.314;-6.300;2023-02-26T04:16:36;102434.34;;;7.49;55.94
64368;BME280;50692;53.314;-6.300;2023-02-26T04:19:22;102435.16;;;7.52;56.35
64368;BME280;50692;53.314;-6.300;2023-02-26T04:22:09;102440.44;;;7.52;56.43
64368;BME280;50692;53.314;-6.300;2023-02-26T04:24:54;102451.88;;;7.50;57.07
64368;BME280;50692;53.314;-6.300;2023-02-26T04:27:40;102449.22;;;7.50;57.49
64368;BME280;50692;53.314;-6.300;2023-02-26T04:30:26;102451.94;;;7.45;57.82
64368;BME280;50692;53.314;-6.300;2023-02-26T04:33:12;102443.97;;;7.50;57.69
64368;BME280;50692;53.314;-6.300;2023-02-26T04:35:59;102428.28;;;7.42;57.26
64368;BME280;50692;53.314;-6.300;2023-02-26T04:38:45;102447.50;;;7.47;56.66
64368;BME280;50692;53.314;-6.300;2023-02-26T04:41:31;102431.75;;;7.45;56.63
64368;BME280;50692;53.314;-6.300;2023-02-26T04:44:17;102444.91;;;7.45;56.05
64368;BME280;50692;53.314;-6.300;2023-02-26T04:47:03;102436.28;;;7.33;55.82
64368;BME280;50692;53.314;-6.300;2023-02-26T04:49:49;102459.81;;;7.45;55.79
64368;BME280;50692;53.314;-6.300;2023-02-26T04:52:34;102458.00;;;7.50;55.74
64368;BME280;50692;53.314;-6.300;2023-02-26T04:55:20;102455.41;;;7.47;55.75
64368;BME280;50692;53.314;-6.300;2023-02-26T04:58:07;102468.47;;;7.52;55.64
64368;BME280;50692;53.314;-6.300;2023-02-26T05:00:53;102465.09;;;7.43;54.74
64368;BME280;50692;53.314;-6.300;2023-02-26T05:03:39;102469.44;;;7.46;54.67
64368;BME280;50692;53.314;-6.300;2023-02-26T05:06:25;102473.84;;;7.44;54.38
64368;BME280;50692;53.314;-6.300;2023-02-26T05:09:11;102471.22;;;7.44;54.22
64368;BME280;50692;53.314;-6.300;2023-02-26T05:11:57;102473.78;;;7.50;54.24
64368;BME280;50692;53.314;-6.300;2023-02-26T05:14:43;102482.63;;;7.43;54.49
64368;BME280;50692;53.314;-6.300;2023-02-26T05:17:29;102492.25;;;7.45;54.55
64368;BME280;50692;53.314;-6.300;2023-02-26T05:20:14;102485.22;;;7.44;54.77
64368;BME280;50692;53.314;-6.300;2023-02-26T05:23:00;102492.22;;;7.47;54.92
64368;BME280;50692;53.314;-6.300;2023-02-26T05:25:46;102489.53;;;7.52;54.71
64368;BME280;50692;53.314;-6.300;2023-02-26T05:28:32;102500.13;;;7.47;54.48
64368;BME280;50692;53.314;-6.300;2023-02-26T05:31:18;102487.84;;;7.49;54.48
64368;BME280;50692;53.314;-6.300;2023-02-26T05:34:04;102484.34;;;7.47;54.32
64368;BME280;50692;53.314;-6.300;2023-02-26T05:36:50;102487.88;;;7.46;54.23
64368;BME280;50692;53.314;-6.300;2023-02-26T05:39:36;102495.72;;;7.48;53.83
64368;BME280;50692;53.314;-6.300;2023-02-26T05:42:22;102482.66;;;7.41;53.55
64368;BME280;50692;53.314;-6.300;2023-02-26T05:45:08;102490.50;;;7.44;53.78
64368;BME280;50692;53.314;-6.300;2023-02-26T05:47:54;102498.34;;;7.52;54.06
64368;BME280;50692;53.314;-6.300;2023-02-26T05:50:40;102504.50;;;7.50;54.32
64368;BME280;50692;53.314;-6.300;2023-02-26T05:53:26;102497.53;;;7.45;54.85
64368;BME280;50692;53.314;-6.300;2023-02-26T05:56:12;102503.59;;;7.51;54.74
64368;BME280;50692;53.314;-6.300;2023-02-26T05:58:57;102500.09;;;7.50;54.97
64368;BME280;50692;53.314;-6.300;2023-02-26T06:01:43;102505.31;;;7.53;54.95
64368;BME280;50692;53.314;-6.300;2023-02-26T06:04:29;102513.19;;;7.55;55.39
64368;BME280;50692;53.314;-6.300;2023-02-26T06:07:15;102518.44;;;7.55;55.90
64368;BME280;50692;53.314;-6.300;2023-02-26T06:10:01;102519.41;;;7.49;56.42
64368;BME280;50692;53.314;-6.300;2023-02-26T06:12:47;102519.41;;;7.49;56.25
64368;BME280;50692;53.314;-6.300;2023-02-26T06:15:32;102521.19;;;7.49;56.04
64368;BME280;50692;53.314;-6.300;2023-02-26T06:18:18;102522.91;;;7.50;55.41
64368;BME280;50692;53.314;-6.300;2023-02-26T06:21:04;102531.72;;;7.45;55.15
64368;BME280;50692;53.314;-6.300;2023-02-26T06:23:50;102531.66;;;7.50;54.70
64368;BME280;50692;53.314;-6.300;2023-02-26T06:26:36;102533.47;;;7.47;54.61
64368;BME280;50692;53.314;-6.300;2023-02-26T06:29:22;102531.69;;;7.49;54.55
64368;BME280;50692;53.314;-6.300;2023-02-26T06:32:08;102531.66;;;7.50;54.46
64368;BME280;50692;53.314;-6.300;2023-02-26T06:34:53;102536.09;;;7.47;53.90
64368;BME280;50692;53.314;-6.300;2023-02-26T06:37:39;102539.59;;;7.49;53.91
64368;BME280;50692;53.314;-6.300;2023-02-26T06:40:25;102533.47;;;7.47;53.92
64368;BME280;50692;53.314;-6.300;2023-02-26T06:43:11;102550.09;;;7.50;53.96
64368;BME280;50692;53.314;-6.300;2023-02-26T06:45:58;102548.34;;;7.48;53.86
64368;BME280;50692;53.314;-6.300;2023-02-26T06:48:44;102550.97;;;7.52;54.09
64368;BME280;50692;53.314;-6.300;2023-02-26T06:51:29;102548.31;;;7.51;54.04
64368;BME280;50692;53.314;-6.300;2023-02-26T06:54:15;102557.09;;;7.51;54.11
64368;BME280;50692;53.314;-6.300;2023-02-26T06:57:01;102551.81;;;7.51;54.79
64368;BME280;50692;53.314;-6.300;2023-02-26T06:59:47;102550.97;;;7.52;55.99
64368;BME280;50692;53.314;-6.300;2023-02-26T07:02:33;102556.19;;;7.54;57.03
64368;BME280;50692;53.314;-6.300;2023-02-26T07:05:19;102559.69;;;7.56;57.71
64368;BME280;50692;53.314;-6.300;2023-02-26T07:08:06;102558.00;;;7.50;58.14
64368;BME280;50692;53.314;-6.300;2023-02-26T07:10:52;102571.97;;;7.57;58.14
64368;BME280;50692;53.314;-6.300;2023-02-26T07:13:37;102579.88;;;7.54;58.41
64368;BME280;50692;53.314;-6.300;2023-02-26T07:16:24;102575.50;;;7.53;58.46
64368;BME280;50692;53.314;-6.300;2023-02-26T07:19:09;102585.13;;;7.55;57.85
64368;BME280;50692;53.314;-6.300;2023-02-26T07:21:55;102593.03;;;7.54;57.77
64368;BME280;50692;53.314;-6.300;2023-02-26T07:24:41;102601.00;;;7.46;57.72
64368;BME280;50692;53.314;-6.300;2023-02-26T07:27:28;102608.84;;;7.51;58.05
64368;BME280;50692;53.314;-6.300;2023-02-26T07:30:14;102617.59;;;7.56;58.02
64368;BME280;50692;53.314;-6.300;2023-02-26T07:33:00;102619.28;;;7.61;58.22
64368;BME280;50692;53.314;-6.300;2023-02-26T07:35:47;102623.66;;;7.64;58.28
64368;BME280;50692;53.314;-6.300;2023-02-26T07:38:33;102612.25;;;7.62;58.80
64368;BME280;50692;53.314;-6.300;2023-02-26T07:41:18;102614.88;;;7.63;59.11
64368;BME280;50692;53.314;-6.300;2023-02-26T07:44:04;102615.78;;;7.61;59.16
64368;BME280;50692;53.314;-6.300;2023-02-26T07:46:50;102626.31;;;7.61;58.98
64368;BME280;50692;53.314;-6.300;2023-02-26T07:49:36;102630.69;;;7.59;59.09
64368;BME280;50692;53.314;-6.300;2023-02-26T07:52:22;102645.59;;;7.63;59.38
64368;BME280;50692;53.314;-6.300;2023-02-26T07:55:08;102648.28;;;7.57;60.51
64368;BME280;50692;53.314;-6.300;2023-02-26T07:57:54;102657.00;;;7.62;60.59
64368;BME280;50692;53.314;-6.300;2023-02-26T08:00:40;102650.84;;;7.61;60.70
64368;BME280;50692;53.314;-6.300;2023-02-26T08:03:26;102664.91;;;7.60;60.76
64368;BME280;50692;53.314;-6.300;2023-02-26T08:06:12;102646.53;;;7.54;60.64
64368;BME280;50692;53.314;-6.300;2023-02-26T08:08:58;102654.44;;;7.56;60.35
64368;BME280;50692;53.314;-6.300;2023-02-26T08:11:44;102653.50;;;7.58;59.49
64368;BME280;50692;53.314;-6.300;2023-02-26T08:14:30;102664.94;;;7.57;59.20
64368;BME280;50692;53.314;-6.300;2023-02-26T08:17:16;102671.06;;;7.58;59.23
64368;BME280;50692;53.314;-6.300;2023-02-26T08:20:01;102682.47;;;7.60;59.03
64368;BME280;50692;53.314;-6.300;2023-02-26T08:22:50;102685.06;;;7.61;59.07
64368;BME280;50692;53.314;-6.300;2023-02-26T08:25:36;102689.41;;;7.65;58.95
64368;BME280;50692;53.314;-6.300;2023-02-26T08:28:22;102677.19;;;7.61;58.69
64368;BME280;50692;53.314;-6.300;2023-02-26T08:31:08;102687.66;;;7.66;58.58
64368;BME280;50692;53.314;-6.300;2023-02-26T08:33:54;102690.28;;;7.71;58.52
64368;BME280;50692;53.314;-6.300;2023-02-26T08:36:40;102698.13;;;7.72;58.69
64368;BME280;50692;53.314;-6.300;2023-02-26T08:39:26;102699.00;;;7.73;58.75
64368;BME280;50692;53.314;-6.300;2023-02-26T08:42:12;102707.78;;;7.73;58.24
64368;BME280;50692;53.314;-6.300;2023-02-26T08:45:00;102717.34;;;7.83;58.26
64368;BME280;50692;53.314;-6.300;2023-02-26T08:47:46;102721.72;;;7.83;58.40
64368;BME280;50692;53.314;-6.300;2023-02-26T08:50:32;102724.28;;;7.90;58.28
64368;BME280;50692;53.314;-6.300;2023-02-26T08:53:18;102727.00;;;7.84;57.35
64368;BME280;50692;53.314;-6.300;2023-02-26T08:56:04;102717.31;;;7.86;57.60
64368;BME280;50692;53.314;-6.300;2023-02-26T08:58:50;102723.44;;;7.87;58.23
64368;BME280;50692;53.314;-6.300;2023-02-26T09:01:36;102730.44;;;7.92;58.14
64368;BME280;50692;53.314;-6.300;2023-02-26T09:04:22;102733.06;;;7.92;58.47
64368;BME280;50692;53.314;-6.300;2023-02-26T09:07:08;102724.28;;;7.92;58.96
64368;BME280;50692;53.314;-6.300;2023-02-26T09:09:54;102720.88;;;7.81;60.71
64368;BME280;50692;53.314;-6.300;2023-02-26T09:12:40;102724.31;;;7.89;61.02
64368;BME280;50692;53.314;-6.300;2023-02-26T09:15:26;102735.63;;;8.00;61.16
64368;BME280;50692;53.314;-6.300;2023-02-26T09:18:11;102733.88;;;7.98;61.21
64368;BME280;50692;53.314;-6.300;2023-02-26T09:20:59;102733.91;;;7.91;61.12
64368;BME280;50692;53.314;-6.300;2023-02-26T09:23:45;102744.50;;;7.88;61.88
64368;BME280;50692;53.314;-6.300;2023-02-26T09:26:31;102745.44;;;7.84;63.40
64368;BME280;50692;53.314;-6.300;2023-02-26T09:29:17;102743.66;;;7.85;63.59
64368;BME280;50692;53.314;-6.300;2023-02-26T09:32:03;102733.22;;;7.77;64.14
64368;BME280;50692;53.314;-6.300;2023-02-26T09:34:52;102742.84;;;7.77;64.51
64368;BME280;50692;53.314;-6.300;2023-02-26T09:37:38;102769.16;;;7.81;65.08
64368;BME280;50692;53.314;-6.300;2023-02-26T09:40:33;102761.19;;;7.86;65.03
64368;BME280;50692;53.314;-6.300;2023-02-26T09:44:17;102765.50;;;7.94;64.84
64368;BME280;50692;53.314;-6.300;2023-02-26T09:47:22;102768.88;;;8.09;64.06
64368;BME280;50692;53.314;-6.300;2023-02-26T09:50:18;102773.72;;;8.52;63.65
64368;BME280;50692;53.314;-6.300;2023-02-26T09:53:33;102780.13;;;9.02;61.34
64368;BME280;50692;53.314;-6.300;2023-02-26T09:56:24;102779.94;;;9.16;60.41
64368;BME280;50692;53.314;-6.300;2023-02-26T09:59:11;102783.63;;;9.02;58.23
64368;BME280;50692;53.314;-6.300;2023-02-26T10:02:14;102776.75;;;8.91;58.23
64368;BME280;50692;53.314;-6.300;2023-02-26T10:10:49;102804.25;;;8.74;58.82
64368;BME280;50692;53.314;-6.300;2023-02-26T10:13:41;102810.41;;;8.70;59.29
64368;BME280;50692;53.314;-6.300;2023-02-26T10:16:33;102812.22;;;8.68;59.34
64368;BME280;50692;53.314;-6.300;2023-02-26T10:19:26;102810.53;;;8.61;59.79
64368;BME280;50692;53.314;-6.300;2023-02-26T10:22:36;102811.34;;;8.68;60.14
64368;BME280;50692;53.314;-6.300;2023-02-26T10:25:40;102806.31;;;8.46;60.75
64368;BME280;50692;53.314;-6.300;2023-02-26T10:28:36;102824.59;;;8.61;59.70
64368;BME280;50692;53.314;-6.300;2023-02-26T10:31:37;102835.19;;;8.55;60.20
64368;BME280;50692;53.314;-6.300;2023-02-26T10:37:42;102843.88;;;8.65;61.07
64368;BME280;50692;53.314;-6.300;2023-02-26T10:43:25;102850.41;;;9.06;60.93
64368;BME280;50692;53.314;-6.300;2023-02-26T10:46:21;102842.44;;;9.13;60.30
64368;BME280;50692;53.314;-6.300;2023-02-26T10:49:50;102842.34;;;9.20;59.93
64368;BME280;50692;53.314;-6.300;2023-02-26T10:52:37;102838.50;;;9.44;59.40
64368;BME280;50692;53.314;-6.300;2023-02-26T10:58:22;102847.81;;;11.15;54.85
64368;BME280;50692;53.314;-6.300;2023-02-26T11:01:19;102845.25;;;12.25;51.60
64368;BME280;50692;53.314;-6.300;2023-02-26T11:04:16;102845.13;;;12.93;48.75
64368;BME280;50692;53.314;-6.300;2023-02-26T11:07:03;102850.03;;;13.37;47.24
64368;BME280;50692;53.314;-6.300;2023-02-26T11:09:50;102853.88;;;12.97;46.70
64368;BME280;50692;53.314;-6.300;2023-02-26T11:12:36;102856.53;;;12.32;47.64
64368;BME280;50692;53.314;-6.300;2023-02-26T11:15:25;102859.00;;;11.68;49.15
64368;BME280;50692;53.314;-6.300;2023-02-26T11:18:18;102859.06;;;11.24;50.63
64368;BME280;50692;53.314;-6.300;2023-02-26T11:21:06;102851.88;;;10.89;51.40
64368;BME280;50692;53.314;-6.300;2023-02-26T11:24:16;102853.34;;;10.59;52.57
64368;BME280;50692;53.314;-6.300;2023-02-26T11:27:06;102846.84;;;10.29;53.40
64368;BME280;50692;53.314;-6.300;2023-02-26T11:29:56;102849.88;;;10.04;53.67
64368;BME280;50692;53.314;-6.300;2023-02-26T11:32:43;102863.22;;;9.95;53.98
64368;BME280;50692;53.314;-6.300;2023-02-26T11:35:30;102869.44;;;9.93;54.00
64368;BME280;50692;53.314;-6.300;2023-02-26T11:38:21;102864.22;;;9.88;55.01
64368;BME280;50692;53.314;-6.300;2023-02-26T11:41:10;102868.75;;;9.80;55.35
64368;BME280;50692;53.314;-6.300;2023-02-26T11:44:04;102871.41;;;9.80;55.85
64368;BME280;50692;53.314;-6.300;2023-02-26T11:46:54;102866.16;;;9.77;56.18
64368;BME280;50692;53.314;-6.300;2023-02-26T11:49:50;102859.19;;;9.73;56.17
64368;BME280;50692;53.314;-6.300;2023-02-26T11:52:42;102861.84;;;9.71;56.27
64368;BME280;50692;53.314;-6.300;2023-02-26T11:55:34;102855.47;;;9.84;55.82
64368;BME280;50692;53.314;-6.300;2023-02-26T11:58:22;102863.00;;;10.09;55.61
64368;BME280;50692;53.314;-6.300;2023-02-26T12:01:10;102860.13;;;10.23;55.54
64368;BME280;50692;53.314;-6.300;2023-02-26T12:03:59;102854.72;;;10.32;54.50
64368;BME280;50692;53.314;-6.300;2023-02-26T12:06:49;102862.38;;;10.47;54.55
64368;BME280;50692;53.314;-6.300;2023-02-26T12:09:35;102864.84;;;10.56;54.85
64368;BME280;50692;53.314;-6.300;2023-02-26T12:12:51;102857.34;;;10.80;54.16
64368;BME280;50692;53.314;-6.300;2023-02-26T12:16:14;102860.91;;;11.61;53.09
64368;BME280;50692;53.314;-6.300;2023-02-26T12:19:11;102852.63;;;11.75;51.62
64368;BME280;50692;53.314;-6.300;2023-02-26T12:46:32;102856.91;;;12.18;50.12
64368;BME280;50692;53.314;-6.300;2023-02-26T12:52:50;102856.91;;;12.18;49.09
64368;BME280;50692;53.314;-6.300;2023-02-26T12:56:01;102842.00;;;12.78;47.69
64368;BME280;50692;53.314;-6.300;2023-02-26T13:20:23;102861.47;;;12.78;46.85
64368;BME280;50692;53.314;-6.300;2023-02-26T13:23:13;102854.50;;;12.74;47.53
64368;BME280;50692;53.314;-6.300;2023-02-26T13:26:06;102848.31;;;13.05;47.16
64368;BME280;50692;53.314;-6.300;2023-02-26T13:29:04;102846.47;;;12.77;46.24
64368;BME280;50692;53.314;-6.300;2023-02-26T13:32:04;102845.97;;;12.30;47.52
64368;BME280;50692;53.314;-6.300;2023-02-26T13:34:56;102845.25;;;12.23;48.10
64368;BME280;50692;53.314;-6.300;2023-02-26T13:37:50;102847.78;;;13.23;46.81
64368;BME280;50692;53.314;-6.300;2023-02-26T13:57:04;102840.25;;;12.45;47.49
64368;BME280;50692;53.314;-6.300;2023-02-26T13:59:54;102844.59;;;12.15;48.82
64368;BME280;50692;53.314;-6.300;2023-02-26T14:02:46;102864.16;;;12.10;49.22
64368;BME280;50692;53.314;-6.300;2023-02-26T14:05:52;102849.56;;;11.93;50.25
64368;BME280;50692;53.314;-6.300;2023-02-26T14:08:42;102852.47;;;11.81;50.59
64368;BME280;50692;53.314;-6.300;2023-02-26T14:22:46;102859.38;;;11.11;52.55
64368;BME280;50692;53.314;-6.300;2023-02-26T14:25:36;102864.56;;;11.14;52.39
64368;BME280;50692;53.314;-6.300;2023-02-26T14:31:18;102855.97;;;11.04;50.61
64368;BME280;50692;53.314;-6.300;2023-02-26T14:34:13;102857.22;;;11.28;50.47
64368;BME280;50692;53.314;-6.300;2023-02-26T14:37:06;102862.25;;;11.79;49.70
64368;BME280;50692;53.314;-6.300;2023-02-26T14:40:05;102855.28;;;12.12;48.59
64368;BME280;50692;53.314;-6.300;2023-02-26T14:42:58;102856.84;;;12.85;47.63
64368;BME280;50692;53.314;-6.300;2023-02-26T14:45:45;102857.91;;;12.79;45.89
64368;BME280;50692;53.314;-6.300;2023-02-26T14:48:32;102839.47;;;12.42;47.08
64368;BME280;50692;53.314;-6.300;2023-02-26T15:00:13;102858.00;;;12.43;47.55
64368;BME280;50692;53.314;-6.300;2023-02-26T15:03:21;102863.81;;;12.23;48.58
64368;BME280;50692;53.314;-6.300;2023-02-26T15:18:42;102859.16;;;14.87;41.04
64368;BME280;50692;53.314;-6.300;2023-02-26T15:21:37;102858.06;;;14.43;41.55
64368;BME280;50692;53.314;-6.300;2023-02-26T15:24:28;102856.00;;;14.00;41.69
64368;BME280;50692;53.314;-6.300;2023-02-26T15:27:16;102874.16;;;13.59;41.91
64368;BME280;50692;53.314;-6.300;2023-02-26T15:30:04;102856.09;;;13.11;43.04
64368;BME280;50692;53.314;-6.300;2023-02-26T15:32:56;102859.56;;;12.83;44.26
64368;BME280;50692;53.314;-6.300;2023-02-26T15:35:43;102853.00;;;12.65;45.08
64368;BME280;50692;53.314;-6.300;2023-02-26T15:38:41;102863.25;;;12.45;45.32
64368;BME280;50692;53.314;-6.300;2023-02-26T15:41:29;102868.19;;;12.26;46.03
64368;BME280;50692;53.314;-6.300;2023-02-26T15:44:19;102860.56;;;12.12;46.96
64368;BME280;50692;53.314;-6.300;2023-02-26T15:47:14;102867.31;;;11.90;47.31
64368;BME280;50692;53.314;-6.300;2023-02-26T15:50:01;102859.66;;;11.76;47.71
64368;BME280;50692;53.314;-6.300;2023-02-26T15:52:50;102862.38;;;11.73;48.47
64368;BME280;50692;53.314;-6.300;2023-02-26T15:55:50;102863.50;;;11.63;49.65
64368;BME280;50692;53.314;-6.300;2023-02-26T15:58:41;102856.09;;;11.40;49.30
64368;BME280;50692;53.314;-6.300;2023-02-26T16:01:30;102869.13;;;11.09;49.31
64368;BME280;50692;53.314;-6.300;2023-02-26T16:04:18;102856.53;;;10.76;50.22
64368;BME280;50692;53.314;-6.300;2023-02-26T16:07:05;102875.91;;;10.78;50.78
64368;BME280;50692;53.314;-6.300;2023-02-26T16:09:53;102873.56;;;10.62;51.03
64368;BME280;50692;53.314;-6.300;2023-02-26T16:12:41;102870.16;;;10.55;50.70
64368;BME280;50692;53.314;-6.300;2023-02-26T16:15:30;102879.25;;;10.40;51.05
64368;BME280;50692;53.314;-6.300;2023-02-26T16:18:21;102876.69;;;10.34;51.44
64368;BME280;50692;53.314;-6.300;2023-02-26T16:21:18;102868.56;;;10.91;49.93
64368;BME280;50692;53.314;-6.300;2023-02-26T16:24:11;102874.97;;;11.63;47.76
64368;BME280;50692;53.314;-6.300;2023-02-26T16:27:02;102862.16;;;12.19;46.65
64368;BME280;50692;53.314;-6.300;2023-02-26T16:29:50;102861.66;;;12.72;45.83
64368;BME280;50692;53.314;-6.300;2023-02-26T16:32:37;102872.06;;;13.09;44.85
64368;BME280;50692;53.314;-6.300;2023-02-26T16:35:30;102867.50;;;13.14;43.06
64368;BME280;50692;53.314;-6.300;2023-02-26T16:38:31;102875.53;;;13.13;42.84
64368;BME280;50692;53.314;-6.300;2023-02-26T16:41:21;102868.44;;;12.49;43.82
64368;BME280;50692;53.314;-6.300;2023-02-26T16:47:17;102868.41;;;11.41;46.85
64368;BME280;50692;53.314;-6.300;2023-02-26T16:50:03;102874.22;;;11.18;47.94
64368;BME280;50692;53.314;-6.300;2023-02-26T16:55:59;102888.38;;;10.70;50.47
64368;BME280;50692;53.314;-6.300;2023-02-26T16:58:48;102896.69;;;10.50;51.56
64368;BME280;50692;53.314;-6.300;2023-02-26T17:01:43;102885.59;;;10.30;52.29
64368;BME280;50692;53.314;-6.300;2023-02-26T17:04:35;102897.91;;;10.31;52.47
64368;BME280;50692;53.314;-6.300;2023-02-26T17:07:34;102894.63;;;10.15;52.74
64368;BME280;50692;53.314;-6.300;2023-02-26T17:10:38;102896.53;;;10.05;52.87
64368;BME280;50692;53.314;-6.300;2023-02-26T17:13:28;102905.50;;;9.97;52.88
64368;BME280;50692;53.314;-6.300;2023-02-26T17:16:14;102895.00;;;9.91;52.76
64368;BME280;50692;53.314;-6.300;2023-02-26T17:19:00;102898.63;;;9.85;53.23
64368;BME280;50692;53.314;-6.300;2023-02-26T17:21:54;102905.78;;;9.77;54.42
64368;BME280;50692;53.314;-6.300;2023-02-26T17:24:45;102886.53;;;9.69;54.52
64368;BME280;50692;53.314;-6.300;2023-02-26T17:27:34;102895.31;;;9.71;54.91